sensor_id;sensor_type;location;lat;lon;timestamp;temperature;humidity
22108;DHT22;11220;48.812;9.128;2023-03-01T00:02:16;16.10;65.70
22108;DHT22;11220;48.812;9.128;2023-03-01T00:04:42;16.10;65.70
22108;DHT22;11220;48.812;9.128;2023-03-01T00:07:07;16.10;65.70
22108;DHT22;11220;48.812;9.128;2023-03-01T00:09:33;16.10;65.60
22108;DHT22;11220;48.812;9.128;2023-03-01T00:11:58;16.10;65.70
22108;DHT22;11220;48.812;9.128;2023-03-01T00:14:24;16.10;65.60
22108;DHT22;11220;48.812;9.128;2023-03-01T00:16:49;16.10;65.70
22108;DHT22;11220;48.812;9.128;2023-03-01T00:19:19;16.10;65.70
22108;DHT22;11220;48.812;9.128;2023-03-01T00:21:45;16.00;65.50
22108;DHT22;11220;48.812;9.128;2023-03-01T00:24:10;16.00;65.60
22108;DHT22;11220;48.812;9.128;2023-03-01T00:26:37;16.00;65.60
22108;DHT22;11220;48.812;9.128;2023-03-01T00:29:02;16.00;65.60
22108;DHT22;11220;48.812;9.128;2023-03-01T00:31:30;16.00;65.60
22108;DHT22;11220;48.812;9.128;2023-03-01T00:33:58;16.00;65.60
22108;DHT22;11220;48.812;9.128;2023-03-01T00:36:26;16.00;65.60
22108;DHT22;11220;48.812;9.128;2023-03-01T00:38:53;16.00;65.60
22108;DHT22;11220;48.812;9.128;2023-03-01T00:41:20;16.00;65.70
22108;DHT22;11220;48.812;9.128;2023-03-01T00:43:48;16.00;65.70
22108;DHT22;11220;48.812;9.128;2023-03-01T00:46:20;16.00;65.70
22108;DHT22;11220;48.812;9.128;2023-03-01T00:48:46;15.90;65.60
22108;DHT22;11220;48.812;9.128;2023-03-01T00:51:17;15.90;66.50
22108;DHT22;11220;48.812;9.128;2023-03-01T00:53:44;16.00;65.60
22108;DHT22;11220;48.812;9.128;2023-03-01T00:56:11;15.90;65.50
22108;DHT22;11220;48.812;9.128;2023-03-01T00:58:37;15.90;65.60
22108;DHT22;11220;48.812;9.128;2023-03-01T01:01:27;15.90;65.60
22108;DHT22;11220;48.812;9.128;2023-03-01T01:04:04;15.90;65.70
22108;DHT22;11220;48.812;9.128;2023-03-01T01:06:33;15.90;65.60
22108;DHT22;11220;48.812;9.128;2023-03-01T01:08:59;15.90;65.60
22108;DHT22;11220;48.812;9.128;2023-03-01T01:11:27;15.90;65.60
22108;DHT22;11220;48.812;9.128;2023-03-01T01:13:52;15.90;65.60
22108;DHT22;11220;48.812;9.128;2023-03-01T01:16:20;15.90;65.60
22108;DHT22;11220;48.812;9.128;2023-03-01T01:18:46;15.90;65.60
22108;DHT22;11220;48.812;9.128;2023-03-01T01:21:15;15.90;65.60
22108;DHT22;11220;48.812;9.128;2023-03-01T01:23:41;15.80;65.60
22108;DHT22;11220;48.812;9.128;2023-03-01T01:26:11;15.80;65.60
22108;DHT22;11220;48.812;9.128;2023-03-01T01:28:37;15.80;65.60
22108;DHT22;11220;48.812;9.128;2023-03-01T01:31:03;15.80;65.60
22108;DHT22;11220;48.812;9.128;2023-03-01T01:33:29;15.80;65.60
22108;DHT22;11220;48.812;9.128;2023-03-01T01:35:54;15.80;65.60
22108;DHT22;11220;48.812;9.128;2023-03-01T01:38:20;15.80;65.60
22108;DHT22;11220;48.812;9.128;2023-03-01T01:40:47;15.80;65.60
22108;DHT22;11220;48.812;9.128;2023-03-01T01:45:48;15.80;65.60
22108;DHT22;11220;48.812;9.128;2023-03-01T01:48:19;15.70;65.60
22108;DHT22;11220;48.812;9.128;2023-03-01T01:50:45;15.70;65.60
22108;DHT22;11220;48.812;9.128;2023-03-01T01:53:16;15.70;65.50
22108;DHT22;11220;48.812;9.128;2023-03-01T01:55:51;15.70;65.60
22108;DHT22;11220;48.812;9.128;2023-03-01T01:58:19;15.70;65.60
22108;DHT22;11220;48.812;9.128;2023-03-01T02:00:47;15.70;66.50
22108;DHT22;11220;48.812;9.128;2023-03-01T02:03:16;15.70;65.50
22108;DHT22;11220;48.812;9.128;2023-03-01T02:08:14;15.70;65.60
22108;DHT22;11220;48.812;9.128;2023-03-01T02:10:41;15.70;65.60
22108;DHT22;11220;48.812;9.128;2023-03-01T02:13:07;15.70;65.50
22108;DHT22;11220;48.812;9.128;2023-03-01T02:15:35;15.70;65.50
22108;DHT22;11220;48.812;9.128;2023-03-01T02:18:01;15.70;65.50
22108;DHT22;11220;48.812;9.128;2023-03-01T02:23:15;15.60;65.50
22108;DHT22;11220;48.812;9.128;2023-03-01T02:30:42;15.60;65.50
22108;DHT22;11220;48.812;9.128;2023-03-01T02:33:29;15.60;65.50
22108;DHT22;11220;48.812;9.128;2023-03-01T02:36:00;15.60;65.60
22108;DHT22;11220;48.812;9.128;2023-03-01T02:38:26;15.60;65.50
22108;DHT22;11220;48.812;9.128;2023-03-01T02:40:54;15.60;65.50
22108;DHT22;11220;48.812;9.128;2023-03-01T02:43:23;15.60;65.50
22108;DHT22;11220;48.812;9.128;2023-03-01T02:45:52;15.60;65.50
22108;DHT22;11220;48.812;9.128;2023-03-01T02:48:19;15.60;65.60
22108;DHT22;11220;48.812;9.128;2023-03-01T02:56:51;15.60;65.60
22108;DHT22;11220;48.812;9.128;2023-03-01T02:59:23;15.60;65.50
22108;DHT22;11220;48.812;9.128;2023-03-01T03:01:49;15.50;65.50
22108;DHT22;11220;48.812;9.128;2023-03-01T03:04:17;15.60;65.50
22108;DHT22;11220;48.812;9.128;2023-03-01T03:06:47;15.60;65.50
22108;DHT22;11220;48.812;9.128;2023-03-01T03:09:13;15.50;65.40
22108;DHT22;11220;48.812;9.128;2023-03-01T03:11:38;15.50;65.40
22108;DHT22;11220;48.812;9.128;2023-03-01T03:14:06;15.50;65.40
22108;DHT22;11220;48.812;9.128;2023-03-01T03:16:58;15.50;65.50
22108;DHT22;11220;48.812;9.128;2023-03-01T03:19:23;15.50;65.40
22108;DHT22;11220;48.812;9.128;2023-03-01T03:21:48;15.50;65.50
22108;DHT22;11220;48.812;9.128;2023-03-01T03:24:14;15.50;65.50
22108;DHT22;11220;48.812;9.128;2023-03-01T03:26:40;15.50;65.30
22108;DHT22;11220;48.812;9.128;2023-03-01T03:29:05;15.50;65.30
22108;DHT22;11220;48.812;9.128;2023-03-01T03:31:31;15.50;65.30
22108;DHT22;11220;48.812;9.128;2023-03-01T03:33:56;15.50;65.30
22108;DHT22;11220;48.812;9.128;2023-03-01T03:36:25;15.50;65.30
22108;DHT22;11220;48.812;9.128;2023-03-01T03:38:50;15.50;65.30
22108;DHT22;11220;48.812;9.128;2023-03-01T03:41:16;15.50;65.30
22108;DHT22;11220;48.812;9.128;2023-03-01T03:43:43;15.50;65.30
22108;DHT22;11220;48.812;9.128;2023-03-01T03:46:10;15.50;65.40
22108;DHT22;11220;48.812;9.128;2023-03-01T03:48:39;15.50;65.30
22108;DHT22;11220;48.812;9.128;2023-03-01T03:51:05;15.50;65.30
22108;DHT22;11220;48.812;9.128;2023-03-01T03:53:31;15.40;65.30
22108;DHT22;11220;48.812;9.128;2023-03-01T03:55:57;15.50;65.30
22108;DHT22;11220;48.812;9.128;2023-03-01T03:58:24;15.50;65.20
22108;DHT22;11220;48.812;9.128;2023-03-01T04:00:52;15.50;65.20
22108;DHT22;11220;48.812;9.128;2023-03-01T04:03:19;15.40;65.10
22108;DHT22;11220;48.812;9.128;2023-03-01T04:05:45;15.40;65.10
22108;DHT22;11220;48.812;9.128;2023-03-01T04:08:11;15.40;65.10
22108;DHT22;11220;48.812;9.128;2023-03-01T04:10:43;15.40;65.10
22108;DHT22;11220;48.812;9.128;2023-03-01T04:13:14;15.50;65.00
22108;DHT22;11220;48.812;9.128;2023-03-01T04:15:41;15.40;65.00
22108;DHT22;11220;48.812;9.128;2023-03-01T04:18:09;15.40;65.00
22108;DHT22;11220;48.812;9.128;2023-03-01T04:20:37;15.40;64.90
22108;DHT22;11220;48.812;9.128;2023-03-01T04:23:18;15.40;65.00
22108;DHT22;11220;48.812;9.128;2023-03-01T04:25:51;15.40;64.80
22108;DHT22;11220;48.812;9.128;2023-03-01T04:28:28;15.40;64.70
22108;DHT22;11220;48.812;9.128;2023-03-01T04:30:56;15.40;64.70
22108;DHT22;11220;48.812;9.128;2023-03-01T04:33:22;15.40;64.70
22108;DHT22;11220;48.812;9.128;2023-03-01T04:35:48;15.40;64.70
22108;DHT22;11220;48.812;9.128;2023-03-01T04:38:15;15.40;64.70
22108;DHT22;11220;48.812;9.128;2023-03-01T04:40:41;15.30;64.70
22108;DHT22;11220;48.812;9.128;2023-03-01T04:43:09;15.40;64.70
22108;DHT22;11220;48.812;9.128;2023-03-01T04:45:35;15.40;65.70
22108;DHT22;11220;48.812;9.128;2023-03-01T04:48:01;15.40;64.60
22108;DHT22;11220;48.812;9.128;2023-03-01T04:50:27;15.40;64.60
22108;DHT22;11220;48.812;9.128;2023-03-01T04:52:53;15.40;64.60
22108;DHT22;11220;48.812;9.128;2023-03-01T04:55:18;15.40;64.50
22108;DHT22;11220;48.812;9.128;2023-03-01T04:57:44;15.30;65.50
22108;DHT22;11220;48.812;9.128;2023-03-01T05:00:12;15.40;64.60
22108;DHT22;11220;48.812;9.128;2023-03-01T05:02:51;15.40;64.60
22108;DHT22;11220;48.812;9.128;2023-03-01T05:05:19;15.40;64.60
22108;DHT22;11220;48.812;9.128;2023-03-01T05:07:45;15.40;64.60
22108;DHT22;11220;48.812;9.128;2023-03-01T05:10:11;15.30;64.40
22108;DHT22;11220;48.812;9.128;2023-03-01T05:12:36;15.30;64.30
22108;DHT22;11220;48.812;9.128;2023-03-01T05:15:03;15.30;64.30
22108;DHT22;11220;48.812;9.128;2023-03-01T05:17:33;15.30;64.30
22108;DHT22;11220;48.812;9.128;2023-03-01T05:19:58;15.30;64.30
22108;DHT22;11220;48.812;9.128;2023-03-01T05:22:25;15.40;64.30
22108;DHT22;11220;48.812;9.128;2023-03-01T05:24:50;15.30;64.30
22108;DHT22;11220;48.812;9.128;2023-03-01T05:27:16;15.30;64.30
22108;DHT22;11220;48.812;9.128;2023-03-01T05:29:41;15.30;64.20
22108;DHT22;11220;48.812;9.128;2023-03-01T05:32:07;15.30;64.20
22108;DHT22;11220;48.812;9.128;2023-03-01T05:34:35;15.30;64.10
22108;DHT22;11220;48.812;9.128;2023-03-01T05:37:02;15.30;64.10
22108;DHT22;11220;48.812;9.128;2023-03-01T05:39:28;15.30;64.10
22108;DHT22;11220;48.812;9.128;2023-03-01T05:41:56;15.30;64.10
22108;DHT22;11220;48.812;9.128;2023-03-01T05:44:22;15.30;64.10
22108;DHT22;11220;48.812;9.128;2023-03-01T05:46:48;15.30;64.20
22108;DHT22;11220;48.812;9.128;2023-03-01T05:49:14;15.40;64.30
22108;DHT22;11220;48.812;9.128;2023-03-01T05:51:41;15.30;64.30
22108;DHT22;11220;48.812;9.128;2023-03-01T05:54:07;15.30;64.50
22108;DHT22;11220;48.812;9.128;2023-03-01T05:56:33;15.30;64.60
22108;DHT22;11220;48.812;9.128;2023-03-01T05:59:00;15.40;64.70
22108;DHT22;11220;48.812;9.128;2023-03-01T06:01:26;15.40;64.80
22108;DHT22;11220;48.812;9.128;2023-03-01T06:03:52;15.40;65.00
22108;DHT22;11220;48.812;9.128;2023-03-01T06:06:17;15.40;65.10
22108;DHT22;11220;48.812;9.128;2023-03-01T06:08:43;15.40;65.20
22108;DHT22;11220;48.812;9.128;2023-03-01T06:11:08;15.40;65.30
22108;DHT22;11220;48.812;9.128;2023-03-01T06:13:34;15.50;66.30
22108;DHT22;11220;48.812;9.128;2023-03-01T06:15:59;15.50;65.40
22108;DHT22;11220;48.812;9.128;2023-03-01T06:18:25;15.50;65.50
22108;DHT22;11220;48.812;9.128;2023-03-01T06:20:54;15.50;65.40
22108;DHT22;11220;48.812;9.128;2023-03-01T06:23:20;15.50;65.40
22108;DHT22;11220;48.812;9.128;2023-03-01T06:25:46;15.60;65.50
22108;DHT22;11220;48.812;9.128;2023-03-01T06:28:11;15.60;65.40
22108;DHT22;11220;48.812;9.128;2023-03-01T06:30:37;15.60;65.40
22108;DHT22;11220;48.812;9.128;2023-03-01T06:33:02;15.60;65.30
22108;DHT22;11220;48.812;9.128;2023-03-01T06:35:31;15.70;65.30
22108;DHT22;11220;48.812;9.128;2023-03-01T06:37:58;15.70;65.30
22108;DHT22;11220;48.812;9.128;2023-03-01T06:40:24;15.70;65.30
22108;DHT22;11220;48.812;9.128;2023-03-01T06:42:50;15.70;65.30
22108;DHT22;11220;48.812;9.128;2023-03-01T06:45:17;15.80;65.30
22108;DHT22;11220;48.812;9.128;2023-03-01T06:47:43;15.90;65.30
22108;DHT22;11220;48.812;9.128;2023-03-01T06:50:09;15.90;65.30
22108;DHT22;11220;48.812;9.128;2023-03-01T06:52:35;15.90;65.30
22108;DHT22;11220;48.812;9.128;2023-03-01T06:55:01;15.90;65.30
22108;DHT22;11220;48.812;9.128;2023-03-01T06:57:27;16.00;65.30
22108;DHT22;11220;48.812;9.128;2023-03-01T06:59:52;16.00;65.30
22108;DHT22;11220;48.812;9.128;2023-03-01T07:02:18;16.00;65.20
22108;DHT22;11220;48.812;9.128;2023-03-01T07:04:44;16.10;65.20
22108;DHT22;11220;48.812;9.128;2023-03-01T07:07:10;16.10;65.20
22108;DHT22;11220;48.812;9.128;2023-03-01T07:09:36;16.10;65.10
22108;DHT22;11220;48.812;9.128;2023-03-01T07:12:01;16.20;65.10
22108;DHT22;11220;48.812;9.128;2023-03-01T07:14:27;16.20;65.10
22108;DHT22;11220;48.812;9.128;2023-03-01T07:16:54;16.30;65.00
22108;DHT22;11220;48.812;9.128;2023-03-01T07:19:20;16.30;64.90
22108;DHT22;11220;48.812;9.128;2023-03-01T07:21:46;16.40;64.90
22108;DHT22;11220;48.812;9.128;2023-03-01T07:24:12;16.40;64.80
22108;DHT22;11220;48.812;9.128;2023-03-01T07:26:37;16.40;64.80
22108;DHT22;11220;48.812;9.128;2023-03-01T07:29:04;16.50;64.80
22108;DHT22;11220;48.812;9.128;2023-03-01T07:31:30;16.50;64.80
22108;DHT22;11220;48.812;9.128;2023-03-01T07:33:56;16.60;64.70
22108;DHT22;11220;48.812;9.128;2023-03-01T07:36:22;16.60;64.60
22108;DHT22;11220;48.812;9.128;2023-03-01T07:38:48;16.60;64.60
22108;DHT22;11220;48.812;9.128;2023-03-01T07:41:13;16.70;64.50
22108;DHT22;11220;48.812;9.128;2023-03-01T07:43:39;16.70;64.40
22108;DHT22;11220;48.812;9.128;2023-03-01T07:46:05;16.70;64.40
22108;DHT22;11220;48.812;9.128;2023-03-01T07:48:32;16.80;64.40
22108;DHT22;11220;48.812;9.128;2023-03-01T07:51:03;16.80;64.30
22108;DHT22;11220;48.812;9.128;2023-03-01T07:53:29;16.90;64.20
22108;DHT22;11220;48.812;9.128;2023-03-01T07:56:09;16.90;64.20
22108;DHT22;11220;48.812;9.128;2023-03-01T07:58:39;16.90;64.10
22108;DHT22;11220;48.812;9.128;2023-03-01T08:01:07;16.90;64.10
22108;DHT22;11220;48.812;9.128;2023-03-01T08:03:34;16.90;64.00
22108;DHT22;11220;48.812;9.128;2023-03-01T08:06:00;17.00;64.00
22108;DHT22;11220;48.812;9.128;2023-03-01T08:08:27;17.00;64.00
22108;DHT22;11220;48.812;9.128;2023-03-01T08:10:55;17.00;64.00
22108;DHT22;11220;48.812;9.128;2023-03-01T08:13:21;17.00;64.00
22108;DHT22;11220;48.812;9.128;2023-03-01T08:15:51;17.00;63.90
22108;DHT22;11220;48.812;9.128;2023-03-01T08:18:17;17.00;63.90
22108;DHT22;11220;48.812;9.128;2023-03-01T08:20:43;17.00;63.90
22108;DHT22;11220;48.812;9.128;2023-03-01T08:23:08;17.00;63.90
22108;DHT22;11220;48.812;9.128;2023-03-01T08:25:34;17.00;63.90
22108;DHT22;11220;48.812;9.128;2023-03-01T08:27:59;17.00;63.90
22108;DHT22;11220;48.812;9.128;2023-03-01T08:30:25;17.00;63.90
22108;DHT22;11220;48.812;9.128;2023-03-01T08:32:51;17.00;63.90
22108;DHT22;11220;48.812;9.128;2023-03-01T08:35:19;17.10;64.00
22108;DHT22;11220;48.812;9.128;2023-03-01T08:37:45;17.10;64.00
22108;DHT22;11220;48.812;9.128;2023-03-01T08:40:11;17.00;63.90
22108;DHT22;11220;48.812;9.128;2023-03-01T08:42:39;17.00;63.90
22108;DHT22;11220;48.812;9.128;2023-03-01T08:45:05;17.10;64.00
22108;DHT22;11220;48.812;9.128;2023-03-01T08:47:31;17.00;63.90
22108;DHT22;11220;48.812;9.128;2023-03-01T08:49:59;17.10;64.10
22108;DHT22;11220;48.812;9.128;2023-03-01T08:52:24;17.10;64.00
22108;DHT22;11220;48.812;9.128;2023-03-01T08:54:50;17.10;64.00
22108;DHT22;11220;48.812;9.128;2023-03-01T08:57:15;17.10;64.10
22108;DHT22;11220;48.812;9.128;2023-03-01T08:59:41;17.10;64.10
22108;DHT22;11220;48.812;9.128;2023-03-01T09:02:12;17.10;64.10
22108;DHT22;11220;48.812;9.128;2023-03-01T09:04:38;17.10;64.10
22108;DHT22;11220;48.812;9.128;2023-03-01T09:07:03;17.10;64.20
22108;DHT22;11220;48.812;9.128;2023-03-01T09:09:29;17.10;64.40
22108;DHT22;11220;48.812;9.128;2023-03-01T09:11:55;17.00;64.30
22108;DHT22;11220;48.812;9.128;2023-03-01T09:14:20;17.10;64.40
22108;DHT22;11220;48.812;9.128;2023-03-01T09:16:46;17.10;64.50
22108;DHT22;11220;48.812;9.128;2023-03-01T09:19:11;17.10;64.60
22108;DHT22;11220;48.812;9.128;2023-03-01T09:21:37;17.10;64.60
22108;DHT22;11220;48.812;9.128;2023-03-01T09:24:03;17.10;64.60
22108;DHT22;11220;48.812;9.128;2023-03-01T09:26:29;17.10;64.60
22108;DHT22;11220;48.812;9.128;2023-03-01T09:28:55;17.10;64.60
22108;DHT22;11220;48.812;9.128;2023-03-01T09:31:23;17.10;64.70
22108;DHT22;11220;48.812;9.128;2023-03-01T09:33:51;17.10;64.70
22108;DHT22;11220;48.812;9.128;2023-03-01T09:36:19;17.10;64.70
22108;DHT22;11220;48.812;9.128;2023-03-01T09:38:46;17.10;64.70
22108;DHT22;11220;48.812;9.128;2023-03-01T09:46:45;17.10;64.80
22108;DHT22;11220;48.812;9.128;2023-03-01T09:49:24;17.20;64.80
22108;DHT22;11220;48.812;9.128;2023-03-01T09:52:25;17.10;64.90
22108;DHT22;11220;48.812;9.128;2023-03-01T09:54:54;17.20;64.90
22108;DHT22;11220;48.812;9.128;2023-03-01T10:02:45;17.20;65.10
22108;DHT22;11220;48.812;9.128;2023-03-01T10:05:27;17.20;65.20
22108;DHT22;11220;48.812;9.128;2023-03-01T10:10:34;17.20;65.20
22108;DHT22;11220;48.812;9.128;2023-03-01T10:13:04;17.20;65.20
22108;DHT22;11220;48.812;9.128;2023-03-01T10:15:41;17.20;65.30
22108;DHT22;11220;48.812;9.128;2023-03-01T10:18:29;17.20;65.30
22108;DHT22;11220;48.812;9.128;2023-03-01T10:20:59;17.20;65.30
22108;DHT22;11220;48.812;9.128;2023-03-01T10:23:26;17.20;65.30
22108;DHT22;11220;48.812;9.128;2023-03-01T10:26:15;17.20;65.20
22108;DHT22;11220;48.812;9.128;2023-03-01T10:29:09;17.20;65.20
22108;DHT22;11220;48.812;9.128;2023-03-01T10:31:46;17.20;65.30
22108;DHT22;11220;48.812;9.128;2023-03-01T10:34:30;17.20;65.30
22108;DHT22;11220;48.812;9.128;2023-03-01T10:37:01;17.20;65.30
22108;DHT22;11220;48.812;9.128;2023-03-01T10:39:27;17.20;65.40
22108;DHT22;11220;48.812;9.128;2023-03-01T10:42:05;17.20;65.30
22108;DHT22;11220;48.812;9.128;2023-03-01T10:44:43;17.20;65.30
22108;DHT22;11220;48.812;9.128;2023-03-01T10:47:24;17.20;65.20
22108;DHT22;11220;48.812;9.128;2023-03-01T10:49:56;17.20;65.20
22108;DHT22;11220;48.812;9.128;2023-03-01T10:52:36;17.20;65.10
22108;DHT22;11220;48.812;9.128;2023-03-01T10:55:35;17.20;65.10
22108;DHT22;11220;48.812;9.128;2023-03-01T10:58:18;17.20;65.10
22108;DHT22;11220;48.812;9.128;2023-03-01T11:01:00;17.20;65.10
22108;DHT22;11220;48.812;9.128;2023-03-01T11:06:02;17.30;66.20
22108;DHT22;11220;48.812;9.128;2023-03-01T11:08:37;17.20;63.20
22108;DHT22;11220;48.812;9.128;2023-03-01T11:13:51;17.10;63.00
22108;DHT22;11220;48.812;9.128;2023-03-01T11:16:24;17.10;63.70
22108;DHT22;11220;48.812;9.128;2023-03-01T11:21:36;17.10;64.70
22108;DHT22;11220;48.812;9.128;2023-03-01T11:24:04;17.10;64.90
22108;DHT22;11220;48.812;9.128;2023-03-01T11:26:35;17.20;65.10
22108;DHT22;11220;48.812;9.128;2023-03-01T11:29:11;17.20;65.10
22108;DHT22;11220;48.812;9.128;2023-03-01T11:31:39;17.20;65.10
22108;DHT22;11220;48.812;9.128;2023-03-01T11:34:12;17.20;65.20
22108;DHT22;11220;48.812;9.128;2023-03-01T11:41:40;17.30;65.30
22108;DHT22;11220;48.812;9.128;2023-03-01T11:44:18;17.30;65.20
22108;DHT22;11220;48.812;9.128;2023-03-01T11:47:14;17.30;65.10
22108;DHT22;11220;48.812;9.128;2023-03-01T11:50:07;17.30;65.00
22108;DHT22;11220;48.812;9.128;2023-03-01T11:53:13;17.30;65.00
22108;DHT22;11220;48.812;9.128;2023-03-01T11:58:44;17.40;65.00
22108;DHT22;11220;48.812;9.128;2023-03-01T12:07:03;17.40;65.00
22108;DHT22;11220;48.812;9.128;2023-03-01T12:15:09;17.50;64.90
22108;DHT22;11220;48.812;9.128;2023-03-01T12:17:51;17.50;64.90
22108;DHT22;11220;48.812;9.128;2023-03-01T12:20:23;17.50;64.90
22108;DHT22;11220;48.812;9.128;2023-03-01T12:26:04;17.50;64.90
22108;DHT22;11220;48.812;9.128;2023-03-01T12:31:59;17.50;65.00
22108;DHT22;11220;48.812;9.128;2023-03-01T12:35:03;17.50;65.00
22108;DHT22;11220;48.812;9.128;2023-03-01T12:40:33;17.60;65.00
22108;DHT22;11220;48.812;9.128;2023-03-01T12:43:16;17.60;65.00
22108;DHT22;11220;48.812;9.128;2023-03-01T12:46:04;17.60;65.00
22108;DHT22;11220;48.812;9.128;2023-03-01T12:51:24;17.70;65.10
22108;DHT22;11220;48.812;9.128;2023-03-01T12:53:54;17.70;65.10
22108;DHT22;11220;48.812;9.128;2023-03-01T12:56:27;17.70;65.10
22108;DHT22;11220;48.812;9.128;2023-03-01T12:59:17;17.80;65.20
22108;DHT22;11220;48.812;9.128;2023-03-01T13:07:21;17.90;65.30
22108;DHT22;11220;48.812;9.128;2023-03-01T13:18:00;18.00;65.30
22108;DHT22;11220;48.812;9.128;2023-03-01T13:26:15;18.10;65.30
22108;DHT22;11220;48.812;9.128;2023-03-01T13:33:56;18.20;65.70
22108;DHT22;11220;48.812;9.128;2023-03-01T13:44:30;18.40;66.00
22108;DHT22;11220;48.812;9.128;2023-03-01T13:52:40;18.60;66.30
22108;DHT22;11220;48.812;9.128;2023-03-01T13:55:23;18.60;66.40
22108;DHT22;11220;48.812;9.128;2023-03-01T13:57:54;18.70;66.50
22108;DHT22;11220;48.812;9.128;2023-03-01T14:03:02;18.80;66.70
22108;DHT22;11220;48.812;9.128;2023-03-01T14:05:29;18.80;66.80
22108;DHT22;11220;48.812;9.128;2023-03-01T14:07:55;18.90;66.70
22108;DHT22;11220;48.812;9.128;2023-03-01T14:10:21;18.90;66.70
22108;DHT22;11220;48.812;9.128;2023-03-01T14:13:04;18.90;66.50
22108;DHT22;11220;48.812;9.128;2023-03-01T14:15:43;18.90;66.50
22108;DHT22;11220;48.812;9.128;2023-03-01T14:18:29;19.00;66.40
22108;DHT22;11220;48.812;9.128;2023-03-01T14:20:58;19.00;66.20
22108;DHT22;11220;48.812;9.128;2023-03-01T14:23:24;19.10;66.20
22108;DHT22;11220;48.812;9.128;2023-03-01T14:25:54;19.10;65.90
22108;DHT22;11220;48.812;9.128;2023-03-01T14:28:25;19.20;65.90
22108;DHT22;11220;48.812;9.128;2023-03-01T14:30:54;19.20;65.60
22108;DHT22;11220;48.812;9.128;2023-03-01T14:33:27;19.20;65.50
22108;DHT22;11220;48.812;9.128;2023-03-01T14:40:59;19.30;64.80
22108;DHT22;11220;48.812;9.128;2023-03-01T14:43:27;19.40;64.60
22108;DHT22;11220;48.812;9.128;2023-03-01T14:45:54;19.40;64.40
22108;DHT22;11220;48.812;9.128;2023-03-01T14:48:19;19.50;64.20
22108;DHT22;11220;48.812;9.128;2023-03-01T14:50:46;19.50;64.00
22108;DHT22;11220;48.812;9.128;2023-03-01T14:53:18;19.50;63.90
22108;DHT22;11220;48.812;9.128;2023-03-01T14:56:01;19.60;63.70
22108;DHT22;11220;48.812;9.128;2023-03-01T14:58:32;19.60;63.60
22108;DHT22;11220;48.812;9.128;2023-03-01T15:00:59;19.70;63.50
22108;DHT22;11220;48.812;9.128;2023-03-01T15:03:47;19.60;63.20
22108;DHT22;11220;48.812;9.128;2023-03-01T15:06:22;19.70;63.20
22108;DHT22;11220;48.812;9.128;2023-03-01T15:08:51;19.70;63.10
22108;DHT22;11220;48.812;9.128;2023-03-01T15:11:31;19.70;62.80
22108;DHT22;11220;48.812;9.128;2023-03-01T15:13:58;19.70;62.70
22108;DHT22;11220;48.812;9.128;2023-03-01T15:16:29;19.80;62.70
22108;DHT22;11220;48.812;9.128;2023-03-01T15:21:25;19.80;62.40
22108;DHT22;11220;48.812;9.128;2023-03-01T15:23:54;19.80;62.30
22108;DHT22;11220;48.812;9.128;2023-03-01T15:26:33;19.80;62.30
22108;DHT22;11220;48.812;9.128;2023-03-01T15:29:00;19.80;62.20
22108;DHT22;11220;48.812;9.128;2023-03-01T15:31:34;19.80;62.10
22108;DHT22;11220;48.812;9.128;2023-03-01T15:34:25;19.80;62.10
22108;DHT22;11220;48.812;9.128;2023-03-01T15:36:51;19.80;62.00
22108;DHT22;11220;48.812;9.128;2023-03-01T15:39:42;19.70;61.80
22108;DHT22;11220;48.812;9.128;2023-03-01T15:45:11;19.60;61.60
22108;DHT22;11220;48.812;9.128;2023-03-01T15:47:40;19.60;61.60
22108;DHT22;11220;48.812;9.128;2023-03-01T15:50:16;19.60;61.60
22108;DHT22;11220;48.812;9.128;2023-03-01T15:52:42;19.60;61.60
22108;DHT22;11220;48.812;9.128;2023-03-01T15:55:18;19.50;61.60
22108;DHT22;11220;48.812;9.128;2023-03-01T15:57:43;19.50;61.60
22108;DHT22;11220;48.812;9.128;2023-03-01T16:00:10;19.40;61.50
22108;DHT22;11220;48.812;9.128;2023-03-01T16:02:39;19.40;61.50
22108;DHT22;11220;48.812;9.128;2023-03-01T16:05:05;19.40;61.50
22108;DHT22;11220;48.812;9.128;2023-03-01T16:07:30;19.30;61.40
22108;DHT22;11220;48.812;9.128;2023-03-01T16:09:56;19.30;61.40
22108;DHT22;11220;48.812;9.128;2023-03-01T16:12:22;19.30;61.40
22108;DHT22;11220;48.812;9.128;2023-03-01T16:14:49;19.20;61.30
22108;DHT22;11220;48.812;9.128;2023-03-01T16:17:15;19.20;61.30
22108;DHT22;11220;48.812;9.128;2023-03-01T16:19:41;19.20;61.50
22108;DHT22;11220;48.812;9.128;2023-03-01T16:22:08;19.20;61.50
22108;DHT22;11220;48.812;9.128;2023-03-01T16:24:34;19.10;61.30
22108;DHT22;11220;48.812;9.128;2023-03-01T16:27:01;19.10;61.10
22108;DHT22;11220;48.812;9.128;2023-03-01T16:29:26;19.00;61.20
22108;DHT22;11220;48.812;9.128;2023-03-01T16:31:54;19.00;61.30
22108;DHT22;11220;48.812;9.128;2023-03-01T16:34:20;19.00;61.30
22108;DHT22;11220;48.812;9.128;2023-03-01T16:36:47;19.00;61.40
22108;DHT22;11220;48.812;9.128;2023-03-01T16:39:12;18.90;61.50
22108;DHT22;11220;48.812;9.128;2023-03-01T16:41:38;18.90;61.60
22108;DHT22;11220;48.812;9.128;2023-03-01T16:44:03;18.90;61.70
22108;DHT22;11220;48.812;9.128;2023-03-01T16:46:29;18.90;61.80
22108;DHT22;11220;48.812;9.128;2023-03-01T16:48:55;18.80;61.90
22108;DHT22;11220;48.812;9.128;2023-03-01T16:51:22;18.80;62.00
22108;DHT22;11220;48.812;9.128;2023-03-01T16:53:48;18.80;62.00
22108;DHT22;11220;48.812;9.128;2023-03-01T16:56:15;18.60;57.10
22108;DHT22;11220;48.812;9.128;2023-03-01T16:58:41;18.40;56.60
22108;DHT22;11220;48.812;9.128;2023-03-01T17:01:10;18.30;58.70
22108;DHT22;11220;48.812;9.128;2023-03-01T17:03:36;18.20;58.00
22108;DHT22;11220;48.812;9.128;2023-03-01T17:06:04;18.10;59.00
22108;DHT22;11220;48.812;9.128;2023-03-01T17:08:30;18.10;59.80
22108;DHT22;11220;48.812;9.128;2023-03-01T17:11:02;18.10;60.40
22108;DHT22;11220;48.812;9.128;2023-03-01T17:13:28;18.10;60.60
22108;DHT22;11220;48.812;9.128;2023-03-01T17:15:54;18.10;60.70
22108;DHT22;11220;48.812;9.128;2023-03-01T17:18:19;18.10;60.80
22108;DHT22;11220;48.812;9.128;2023-03-01T17:20:45;18.30;61.10
22108;DHT22;11220;48.812;9.128;2023-03-01T17:23:10;18.20;61.00
22108;DHT22;11220;48.812;9.128;2023-03-01T17:25:36;18.10;60.90
22108;DHT22;11220;48.812;9.128;2023-03-01T17:28:07;18.20;61.00
22108;DHT22;11220;48.812;9.128;2023-03-01T17:30:32;18.10;60.90
22108;DHT22;11220;48.812;9.128;2023-03-01T17:32:58;18.20;61.00
22108;DHT22;11220;48.812;9.128;2023-03-01T17:35:24;18.10;61.10
22108;DHT22;11220;48.812;9.128;2023-03-01T17:37:49;18.10;61.10
22108;DHT22;11220;48.812;9.128;2023-03-01T17:40:15;18.10;61.10
22108;DHT22;11220;48.812;9.128;2023-03-01T17:42:40;18.10;61.20
22108;DHT22;11220;48.812;9.128;2023-03-01T17:45:06;18.20;61.30
22108;DHT22;11220;48.812;9.128;2023-03-01T17:47:32;18.10;61.30